Time;durP1;ratioP1;P1;durP2;ratioP2;P2;SDS_P1;SDS_P2;PMS_P1;PMS_P2;Temp;Humidity;BMP_temperature;BMP_pressure;BME280_temperature;BME280_humidity;BME280_pressure;Samples;Min_cycle;Max_cycle;Signal;HPM_P1;HPM_P2
2021/05/08 00:00:25;;;;;;;4.60;2.30;;;;;;;4.49;92.12;100884.69;5245189;28;20031;-78
2021/05/08 00:02:55;;;;;;;4.75;2.28;;;;;;;4.29;93.12;100896.03;5250032;28;20039;-78
2021/05/08 00:05:26;;;;;;;4.82;2.17;;;;;;;4.39;92.11;100897.69;5252530;28;20013;-77
2021/05/08 00:07:57;;;;;;;4.75;2.13;;;;;;;4.26;92.16;100898.66;5239220;28;20043;-77
2021/05/08 00:10:27;;;;;;;3.95;2.13;;;;;;;4.14;92.59;100899.53;5243805;28;20117;-78
2021/05/08 00:12:57;;;;;;;6.30;2.20;;;;;;;4.16;93.00;100900.41;5238587;28;20048;-77
2021/05/08 00:15:28;;;;;;;4.55;2.45;;;;;;;4.06;93.62;100898.75;5257627;28;20413;-78
2021/05/08 00:18:03;;;;;;;5.50;2.80;;;;;;;3.93;94.93;100902.22;5255891;28;20386;-78
2021/05/08 00:20:33;;;;;;;6.13;3.00;;;;;;;3.86;95.88;100894.50;5256693;28;20426;-78
2021/05/08 00:23:04;;;;;;;5.07;3.13;;;;;;;3.84;96.60;100897.09;5250387;28;20036;-78
2021/05/08 00:25:34;;;;;;;6.78;3.00;;;;;;;4.00;95.51;100893.59;5254598;28;20139;-78
2021/05/08 00:28:04;;;;;;;5.45;2.90;;;;;;;4.04;93.96;100895.31;5257830;28;20036;-77
2021/05/08 00:30:35;;;;;;;5.75;3.00;;;;;;;4.05;93.04;100896.16;5252936;28;20021;-78
2021/05/08 00:33:05;;;;;;;4.65;3.38;;;;;;;3.96;93.39;100903.94;5257041;28;20028;-78
2021/05/08 00:35:35;;;;;;;6.65;3.03;;;;;;;3.78;93.89;100904.03;5238831;28;20505;-78
2021/05/08 00:38:07;;;;;;;5.53;3.00;;;;;;;3.77;95.17;100904.88;5256983;28;20040;-77
2021/05/08 00:40:37;;;;;;;7.60;3.38;;;;;;;3.58;96.55;100908.38;5256910;28;20026;-78
2021/05/08 00:43:07;;;;;;;6.53;3.15;;;;;;;3.78;96.34;100899.69;5238957;28;20066;-78
2021/05/08 00:45:38;;;;;;;5.82;3.30;;;;;;;3.64;96.67;100908.34;5256627;28;20071;-77
2021/05/08 00:48:13;;;;;;;6.63;3.58;;;;;;;3.64;97.39;100904.03;5229585;28;20020;-78
2021/05/08 00:50:44;;;;;;;7.25;3.83;;;;;;;3.74;96.99;100903.16;5250453;28;20021;-77
2021/05/08 00:53:14;;;;;;;7.30;3.10;;;;;;;3.62;97.02;100904.94;5250309;28;20039;-78
2021/05/08 00:55:44;;;;;;;6.63;2.97;;;;;;;3.67;97.43;100898.88;5250065;28;20437;-78
2021/05/08 00:58:15;;;;;;;5.30;2.90;;;;;;;3.64;97.46;100908.34;5257931;28;20085;-77
2021/05/08 01:00:47;;;;;;;5.70;3.00;;;;;;;3.64;97.74;100900.59;5233156;28;20032;-78
2021/05/08 01:03:17;;;;;;;5.47;3.22;;;;;;;3.67;98.36;100900.59;5240188;28;20481;-77
2021/05/08 01:05:48;;;;;;;5.95;3.30;;;;;;;3.72;97.95;100899.72;5253987;28;20032;-78
2021/05/08 01:08:18;;;;;;;5.20;3.10;;;;;;;3.76;97.86;100898.84;5258647;28;20056;-78
2021/05/08 01:10:50;;;;;;;6.38;3.40;;;;;;;3.88;97.63;100903.97;5254428;28;20075;-78
2021/05/08 01:13:20;;;;;;;6.05;3.22;;;;;;;4.06;96.03;100900.44;5258463;28;20126;-78
2021/05/08 01:15:51;;;;;;;6.75;3.08;;;;;;;3.97;94.29;100898.75;5255137;28;20166;-78
2021/05/08 01:18:21;;;;;;;6.88;3.42;;;;;;;3.85;95.27;100903.13;5258781;28;20032;-77
2021/05/08 01:20:51;;;;;;;5.78;3.10;;;;;;;3.95;94.02;100905.66;5253216;28;20529;-78
2021/05/08 01:23:22;;;;;;;4.85;2.83;;;;;;;3.89;95.10;100905.69;5249182;28;20078;-78
2021/05/08 01:25:52;;;;;;;6.47;3.15;;;;;;;3.90;95.30;100906.53;5232174;28;20390;-78
2021/05/08 01:28:27;;;;;;;8.75;3.05;;;;;;;3.83;95.15;100905.72;5257717;28;20406;-77
2021/05/08 01:30:57;;;;;;;4.68;2.80;;;;;;;3.95;94.28;100895.31;5248237;28;20059;-78
2021/05/08 01:33:27;;;;;;;5.63;3.15;;;;;;;4.03;93.43;100903.06;5253938;28;20028;-78
2021/05/08 01:35:58;;;;;;;7.78;2.83;;;;;;;3.99;93.30;100896.19;5253379;28;20070;-78
2021/05/08 01:38:30;;;;;;;5.15;2.83;;;;;;;3.90;93.62;100898.78;5254007;28;20070;-78
2021/05/08 01:41:06;;;;;;;8.75;3.30;;;;;;;3.80;93.05;100905.72;5255271;28;20062;-78
2021/05/08 01:43:37;;;;;;;4.45;2.88;;;;;;;3.92;92.96;100905.69;5249226;28;20029;-77
2021/05/08 01:46:07;;;;;;;7.47;2.97;;;;;;;3.80;93.12;100900.53;5258331;22;20044;-78
2021/05/08 01:48:37;;;;;;;7.82;3.50;;;;;;;3.66;94.73;100907.50;5216161;28;20094;-77
2021/05/08 01:51:08;;;;;;;6.78;3.67;;;;;;;3.61;94.81;100908.38;5216842;28;20628;-78
2021/05/08 01:53:38;;;;;;;6.68;3.28;;;;;;;3.67;95.29;100909.22;5222286;28;20028;-79
2021/05/08 01:56:08;;;;;;;4.68;3.33;;;;;;;3.60;95.27;100902.31;5220612;28;20029;-79
2021/05/08 01:58:39;;;;;;;4.57;2.85;;;;;;;3.82;93.55;100913.47;5223769;28;20479;-78
2021/05/08 02:01:09;;;;;;;7.35;3.67;;;;;;;3.79;92.94;100909.16;5212980;28;20036;-78
2021/05/08 02:03:40;;;;;;;5.97;3.30;;;;;;;3.74;92.84;100910.91;5215779;28;20021;-78
2021/05/08 02:06:10;;;;;;;6.28;3.08;;;;;;;3.69;93.24;100912.66;5221998;28;20096;-78
2021/05/08 02:08:40;;;;;;;6.60;3.60;;;;;;;3.79;93.33;100910.91;5202351;28;20250;-79
2021/05/08 02:11:10;;;;;;;6.47;3.60;;;;;;;3.43;94.10;100910.13;5216143;28;20095;-79
2021/05/08 02:13:41;;;;;;;7.13;3.90;;;;;;;3.25;95.88;100917.88;5214269;28;20025;-78
2021/05/08 02:16:11;;;;;;;8.55;3.70;;;;;;;3.25;97.00;100920.47;5213054;28;20124;-78
2021/05/08 02:18:42;;;;;;;7.57;3.58;;;;;;;3.25;96.16;100912.72;5208967;28;20051;-78
2021/05/08 02:21:12;;;;;;;5.63;3.50;;;;;;;3.38;96.82;100911.84;5212691;28;20029;-78
2021/05/08 02:23:42;;;;;;;4.88;3.28;;;;;;;3.21;97.31;100913.59;5213408;28;20040;-79
2021/05/08 02:26:12;;;;;;;7.60;3.60;;;;;;;3.21;97.83;100903.28;5210397;28;20045;-78
2021/05/08 02:28:43;;;;;;;6.53;3.55;;;;;;;3.22;98.77;100908.41;5215183;28;20033;-78
2021/05/08 02:31:13;;;;;;;6.93;3.50;;;;;;;3.17;98.89;100909.31;5212725;28;20033;-78
2021/05/08 02:33:43;;;;;;;5.40;3.60;;;;;;;3.24;99.43;100914.47;5210470;28;20052;-79
2021/05/08 02:36:14;;;;;;;4.70;3.40;;;;;;;3.27;99.13;100913.59;5218607;28;20085;-78
2021/05/08 02:38:44;;;;;;;6.03;3.70;;;;;;;3.26;99.18;100917.03;5220950;28;20044;-78
2021/05/08 02:41:14;;;;;;;7.47;4.10;;;;;;;3.19;99.70;100912.75;5217168;28;20021;-79
2021/05/08 02:43:44;;;;;;;6.80;4.20;;;;;;;3.22;99.91;100915.31;5218210;28;20080;-78
2021/05/08 02:46:15;;;;;;;6.47;3.70;;;;;;;3.16;99.76;100910.16;5217471;28;20025;-78
2021/05/08 02:48:45;;;;;;;5.22;3.15;;;;;;;2.92;100.00;100905.88;5214835;28;20045;-78
2021/05/08 02:51:15;;;;;;;6.00;3.33;;;;;;;2.89;100.00;100903.25;5214056;28;20160;-78
2021/05/08 02:53:46;;;;;;;6.13;3.45;;;;;;;2.99;100.00;100904.16;5216356;28;20029;-77
2021/05/08 02:56:16;;;;;;;6.30;3.30;;;;;;;2.90;100.00;100909.28;5214442;28;20487;-79
2021/05/08 02:58:46;;;;;;;6.20;3.63;;;;;;;2.91;100.00;100911.00;5213997;28;20025;-78
2021/05/08 03:01:16;;;;;;;6.75;3.35;;;;;;;3.09;97.80;100911.88;5211202;28;20418;-78
2021/05/08 03:03:47;;;;;;;6.63;3.50;;;;;;;3.00;97.71;100911.03;5198623;28;20059;-78
2021/05/08 03:06:17;;;;;;;4.45;2.85;;;;;;;2.98;97.92;100912.72;5214086;28;20032;-78
2021/05/08 03:08:47;;;;;;;6.22;2.95;;;;;;;2.81;97.36;100917.88;5207219;28;20120;-78
2021/05/08 03:11:18;;;;;;;5.90;2.72;;;;;;;2.93;98.17;100911.88;5188847;28;20026;-78
2021/05/08 03:13:48;;;;;;;5.75;3.10;;;;;;;2.88;97.77;100914.44;5206288;28;20083;-78
2021/05/08 03:16:18;;;;;;;5.85;3.20;;;;;;;2.95;95.56;100913.59;5206648;28;20360;-79
2021/05/08 03:18:48;;;;;;;7.35;3.72;;;;;;;2.74;97.42;100912.72;5204940;28;20060;-78
2021/05/08 03:21:19;;;;;;;7.63;4.28;;;;;;;2.68;98.12;100910.16;5206501;28;20056;-78
2021/05/08 03:23:49;;;;;;;5.53;4.15;;;;;;;2.71;99.30;100917.88;5190540;28;20067;-77
2021/05/08 03:26:19;;;;;;;8.45;5.00;;;;;;;2.65;100.00;100923.03;5204345;28;20107;-79
2021/05/08 03:28:49;;;;;;;8.35;4.95;;;;;;;2.78;100.00;100914.44;5215304;28;20036;-78
2021/05/08 03:31:20;;;;;;;8.20;4.93;;;;;;;2.92;98.08;100917.91;5211589;28;20028;-78
2021/05/08 03:33:50;;;;;;;8.80;5.63;;;;;;;2.72;98.86;100923.03;5191717;28;20032;-78
2021/05/08 03:36:20;;;;;;;8.50;5.10;;;;;;;2.82;99.75;100918.75;5195355;28;21264;-78
2021/05/08 03:38:51;;;;;;;10.35;5.80;;;;;;;2.82;99.45;100922.19;5204737;28;20030;-78
2021/05/08 03:41:21;;;;;;;8.70;6.00;;;;;;;2.82;98.51;100916.19;5194031;28;20112;-79
2021/05/08 03:43:52;;;;;;;8.57;5.60;;;;;;;2.91;99.68;100911.00;5206298;28;20029;-79
2021/05/08 03:46:23;;;;;;;8.35;6.07;;;;;;;2.80;98.98;100913.59;5204128;28;20104;-79
2021/05/08 03:48:53;;;;;;;8.27;5.80;;;;;;;2.83;98.88;100911.00;5201889;28;20120;-78
2021/05/08 03:51:24;;;;;;;8.38;5.57;;;;;;;2.66;99.24;100919.59;5206974;28;20104;-78
2021/05/08 03:53:55;;;;;;;8.38;5.60;;;;;;;2.66;100.00;100922.19;5205942;28;20052;-78
2021/05/08 03:56:25;;;;;;;8.05;5.35;;;;;;;2.72;98.69;100919.59;5208440;28;20704;-78
2021/05/08 03:58:56;;;;;;;7.45;4.88;;;;;;;2.68;99.62;100912.72;5208219;28;20029;-78
2021/05/08 04:01:26;;;;;;;6.82;4.32;;;;;;;2.66;99.03;100923.03;5207795;28;20056;-78
2021/05/08 04:03:56;;;;;;;10.00;4.70;;;;;;;2.52;98.26;100918.72;5208228;28;20030;-78
2021/05/08 04:06:26;;;;;;;8.98;5.20;;;;;;;2.62;97.61;100923.00;5206573;28;20029;-78
2021/05/08 04:08:57;;;;;;;8.45;5.13;;;;;;;2.68;98.47;100928.19;5206588;28;20029;-78
2021/05/08 04:11:27;;;;;;;7.60;5.38;;;;;;;2.66;98.63;100924.75;5206002;28;21249;-78
2021/05/08 04:13:57;;;;;;;7.05;5.38;;;;;;;2.68;98.96;100930.78;5190022;28;20064;-78
2021/05/08 04:16:27;;;;;;;8.55;5.80;;;;;;;2.80;99.20;100933.34;5207431;28;20029;-78
2021/05/08 04:18:59;;;;;;;9.63;7.20;;;;;;;2.97;99.25;100935.09;5207177;28;20124;-78
2021/05/08 04:21:30;;;;;;;15.20;8.57;;;;;;;3.09;98.87;100935.13;5206396;28;20112;-78
2021/05/08 04:24:01;;;;;;;14.20;9.50;;;;;;;3.06;99.34;100931.66;5206710;28;20044;-78
2021/05/08 04:26:31;;;;;;;14.85;8.82;;;;;;;3.08;98.35;100941.16;5205960;28;20483;-78
2021/05/08 04:29:02;;;;;;;13.70;9.30;;;;;;;3.36;97.80;100942.00;5206149;28;20026;-78
2021/05/08 04:31:33;;;;;;;11.02;8.13;;;;;;;3.58;95.60;100934.22;5205587;28;20044;-78
2021/05/08 04:34:04;;;;;;;11.27;8.27;;;;;;;3.72;95.32;100938.50;5205563;28;20025;-78
2021/05/08 04:36:34;;;;;;;13.30;8.02;;;;;;;4.12;93.49;100934.91;5205386;28;20032;-78
2021/05/08 04:39:04;;;;;;;14.40;8.45;;;;;;;4.69;91.20;100942.41;5205354;28;20057;-78
2021/05/08 04:41:35;;;;;;;10.63;7.50;;;;;;;5.70;85.62;100929.44;5205559;28;20068;-78
2021/05/08 04:44:05;;;;;;;10.90;7.93;;;;;;;6.48;83.60;100929.41;5205732;28;20402;-78
2021/05/08 04:46:36;;;;;;;10.23;7.35;;;;;;;7.21;80.95;100931.75;5187574;28;20017;-78
2021/05/08 04:49:06;;;;;;;11.30;7.18;;;;;;;8.33;77.93;100925.31;5187655;28;20033;-78
2021/05/08 04:51:36;;;;;;;9.68;7.20;;;;;;;9.56;73.25;100920.63;5205330;28;20033;-78
2021/05/08 04:54:07;;;;;;;7.75;6.40;;;;;;;10.22;69.21;100911.00;5206747;28;20034;-78
2021/05/08 04:56:37;;;;;;;12.38;6.57;;;;;;;11.07;64.85;100918.78;5206286;28;20395;-78
2021/05/08 04:59:07;;;;;;;8.43;6.60;;;;;;;11.30;64.07;100926.72;5205177;28;20026;-78
2021/05/08 05:01:38;;;;;;;7.50;6.30;;;;;;;12.10;60.81;100924.81;5204588;28;20022;-78
2021/05/08 05:04:08;;;;;;;8.13;6.37;;;;;;;11.98;64.97;100920.00;5205912;28;20652;-78
2021/05/08 05:06:38;;;;;;;6.40;5.15;;;;;;;13.59;59.51;100919.78;5205474;28;20677;-78
2021/05/08 05:09:08;;;;;;;7.80;5.97;;;;;;;14.30;58.16;100915.75;5205692;28;20037;-78
2021/05/08 05:11:39;;;;;;;7.43;5.25;;;;;;;14.60;57.06;100913.47;5205837;28;20609;-78
2021/05/08 05:14:09;;;;;;;7.97;4.73;;;;;;;15.69;53.70;100922.06;5205038;28;20033;-78
2021/05/08 05:16:39;;;;;;;7.22;5.68;;;;;;;14.48;56.24;100920.16;5205487;28;20272;-78
2021/05/08 05:19:10;;;;;;;5.53;4.82;;;;;;;14.23;61.55;100927.44;5205791;28;20044;-79
2021/05/08 05:21:40;;;;;;;7.18;5.60;;;;;;;15.30;57.76;100920.56;5205944;28;20052;-78
2021/05/08 05:24:11;;;;;;;6.78;5.30;;;;;;;16.30;54.21;100925.00;5206697;28;20450;-79
2021/05/08 05:26:42;;;;;;;5.82;4.70;;;;;;;17.63;51.98;100914.81;5206771;28;20503;-78
2021/05/08 05:29:12;;;;;;;6.93;4.83;;;;;;;18.00;51.06;100916.94;5208230;28;20032;-78
2021/05/08 05:31:42;;;;;;;8.45;5.68;;;;;;;17.72;51.29;100919.53;5206944;28;20283;-79
2021/05/08 05:34:12;;;;;;;8.95;5.10;;;;;;;17.35;53.18;100922.63;5207102;28;20127;-78
2021/05/08 05:36:43;;;;;;;7.13;5.80;;;;;;;16.33;54.99;100930.97;5207755;28;20037;-78
2021/05/08 05:39:13;;;;;;;8.18;5.18;;;;;;;17.52;53.34;100930.44;5206717;28;20478;-78
2021/05/08 05:41:43;;;;;;;7.13;5.07;;;;;;;16.88;54.73;100927.06;5207270;28;20026;-78
2021/05/08 05:44:14;;;;;;;6.28;5.53;;;;;;;18.08;52.15;100930.53;5206842;28;20029;-78
2021/05/08 05:46:45;;;;;;;7.37;5.90;;;;;;;17.33;53.72;100922.66;5206991;28;20041;-78
2021/05/08 05:49:15;;;;;;;7.35;5.80;;;;;;;17.65;54.50;100926.97;5190111;28;20283;-78
2021/05/08 05:51:45;;;;;;;8.37;6.20;;;;;;;16.95;56.20;100931.91;5207556;28;20025;-79
2021/05/08 05:54:16;;;;;;;7.93;5.32;;;;;;;18.65;53.78;100916.41;5207639;28;20278;-78
2021/05/08 05:56:46;;;;;;;7.40;5.55;;;;;;;18.09;55.19;100914.59;5189389;28;20742;-78
2021/05/08 05:59:16;;;;;;;7.40;6.00;;;;;;;18.32;51.64;100915.88;5213114;28;20036;-78
2021/05/08 06:01:46;;;;;;;9.57;6.00;;;;;;;18.31;51.35;100914.16;5206026;28;20363;-79
2021/05/08 06:04:17;;;;;;;11.57;5.97;;;;;;;19.27;50.26;100914.94;5206863;28;20271;-79
2021/05/08 06:06:47;;;;;;;7.57;5.67;;;;;;;18.36;51.32;100917.38;5206568;28;20931;-79
2021/05/08 06:09:17;;;;;;;9.97;6.30;;;;;;;18.03;51.83;100924.69;5205810;28;20304;-78
2021/05/08 06:11:47;;;;;;;7.82;5.65;;;;;;;18.02;50.49;100918.53;5204673;28;20276;-79
2021/05/08 06:14:18;;;;;;;11.43;6.50;;;;;;;16.12;54.29;100934.75;5206055;28;20032;-79
2021/05/08 06:16:48;;;;;;;9.43;6.15;;;;;;;16.10;56.78;100934.00;5206595;28;20037;-79
2021/05/08 06:19:19;;;;;;;12.90;7.10;;;;;;;16.94;55.82;100932.84;5206543;28;20470;-78
2021/05/08 06:21:49;;;;;;;10.57;6.20;;;;;;;16.10;57.02;100939.25;5206056;28;20033;-79
2021/05/08 06:24:19;;;;;;;12.38;6.53;;;;;;;16.30;56.93;100930.28;5207256;28;20272;-78
2021/05/08 06:26:50;;;;;;;9.05;6.50;;;;;;;16.17;57.97;100932.72;5205979;28;20509;-79
2021/05/08 06:29:20;;;;;;;9.68;6.30;;;;;;;15.92;57.93;100934.94;5206600;28;20029;-78
2021/05/08 06:31:50;;;;;;;9.80;6.63;;;;;;;14.89;60.36;100937.50;5206499;28;20036;-78
2021/05/08 06:34:20;;;;;;;11.10;6.60;;;;;;;14.33;62.56;100944.53;5206736;28;20108;-79
2021/05/08 06:36:51;;;;;;;10.93;6.53;;;;;;;16.34;57.90;100937.09;5207175;28;20280;-79
2021/05/08 06:39:22;;;;;;;16.13;7.15;;;;;;;15.49;56.41;100943.31;5207198;28;20759;-79
2021/05/08 06:41:52;;;;;;;13.02;6.90;;;;;;;16.45;56.02;100940.91;5206047;28;20414;-79
2021/05/08 06:44:26;;;;;;;10.93;6.93;;;;;;;16.32;55.94;100939.81;5204154;28;20028;-79
2021/05/08 06:46:56;;;;;;;11.77;7.22;;;;;;;17.34;56.46;100936.78;5202428;28;20518;-79
2021/05/08 06:49:27;;;;;;;11.93;6.82;;;;;;;17.96;53.65;100931.28;5203541;28;20030;-78
2021/05/08 06:51:57;;;;;;;13.80;7.07;;;;;;;18.19;53.27;100933.41;5202423;28;20052;-78
2021/05/08 06:54:27;;;;;;;9.63;6.20;;;;;;;17.23;53.75;100949.69;5202763;28;20291;-78
2021/05/08 06:56:57;;;;;;;10.65;6.13;;;;;;;19.01;52.33;100929.00;5203203;28;20330;-79
2021/05/08 06:59:28;;;;;;;11.33;6.97;;;;;;;16.24;56.05;100942.00;5206210;28;20022;-79
2021/05/08 07:01:58;;;;;;;10.18;6.03;;;;;;;18.71;52.25;100930.09;5202212;28;20371;-78
2021/05/08 07:04:29;;;;;;;8.00;5.65;;;;;;;20.65;50.36;100923.88;5205505;28;20105;-78
2021/05/08 07:06:59;;;;;;;7.63;4.73;;;;;;;20.42;50.44;100919.34;5203700;28;20034;-78
2021/05/08 07:09:30;;;;;;;9.38;4.78;;;;;;;19.38;50.45;100928.34;5203348;28;20032;-78
2021/05/08 07:12:00;;;;;;;6.30;3.67;;;;;;;19.95;50.20;100924.41;5202308;28;20376;-79
2021/05/08 07:14:30;;;;;;;8.55;4.20;;;;;;;19.76;48.70;100918.66;5203383;28;20029;-79
2021/05/08 07:17:01;;;;;;;7.60;4.37;;;;;;;19.76;49.67;100925.78;5202586;28;20037;-79
2021/05/08 07:19:31;;;;;;;5.97;4.43;;;;;;;21.66;46.85;100912.78;5202758;28;20276;-79
2021/05/08 07:22:02;;;;;;;9.75;4.90;;;;;;;20.31;49.01;100918.41;5205123;28;20112;-78
2021/05/08 07:24:32;;;;;;;7.07;4.40;;;;;;;21.42;48.77;100911.09;5207332;28;20087;-79
2021/05/08 07:27:03;;;;;;;6.27;3.80;;;;;;;21.85;47.25;100912.22;5189122;28;20032;-79
2021/05/08 07:29:33;;;;;;;7.80;4.30;;;;;;;22.75;44.28;100914.75;5206660;28;20537;-79
2021/05/08 07:32:03;;;;;;;7.00;4.23;;;;;;;24.21;42.00;100908.59;5206452;28;20036;-79
2021/05/08 07:34:34;;;;;;;10.20;4.95;;;;;;;20.49;46.68;100919.78;5206436;28;20330;-79
2021/05/08 07:37:04;;;;;;;11.57;5.00;;;;;;;21.07;48.07;100921.66;5206009;28;20033;-79
2021/05/08 07:39:34;;;;;;;12.87;6.20;;;;;;;22.23;44.45;100910.13;5206045;28;20099;-79
2021/05/08 07:42:05;;;;;;;10.63;6.43;;;;;;;22.66;45.67;100905.78;5204980;28;20307;-78
2021/05/08 07:44:35;;;;;;;8.13;5.28;;;;;;;24.48;40.56;100892.84;5205302;28;20037;-79
2021/05/08 07:47:05;;;;;;;11.57;5.33;;;;;;;23.30;42.42;100901.31;5220339;22;20049;-76
2021/05/08 07:49:35;;;;;;;10.70;5.63;;;;;;;24.87;40.50;100898.22;5206643;28;20029;-78
2021/05/08 07:52:06;;;;;;;10.53;6.13;;;;;;;21.30;45.80;100907.53;5204315;28;20673;-78
2021/05/08 07:54:37;;;;;;;9.20;5.53;;;;;;;23.68;42.81;100900.78;5196920;28;20079;-78
2021/05/08 07:57:07;;;;;;;10.95;5.95;;;;;;;21.29;44.53;100897.00;5211838;28;20029;-78
2021/05/08 07:59:37;;;;;;;10.53;6.00;;;;;;;23.10;44.64;100894.06;5223848;28;20086;-78
2021/05/08 08:02:08;;;;;;;9.67;5.87;;;;;;;22.75;45.00;100896.09;5224434;28;20798;-78
2021/05/08 08:04:38;;;;;;;8.68;5.45;;;;;;;23.80;42.13;100897.03;5221543;28;20297;-78
2021/05/08 08:07:08;;;;;;;12.07;5.90;;;;;;;24.73;39.21;100878.16;5231047;28;20021;-78
2021/05/08 08:09:42;;;;;;;10.40;6.57;;;;;;;25.55;40.70;100886.59;5218605;28;20038;-78
2021/05/08 08:12:12;;;;;;;11.63;5.97;;;;;;;24.72;41.28;100885.34;5225603;28;20275;-78
2021/05/08 08:14:42;;;;;;;9.20;5.30;;;;;;;24.23;41.69;100889.75;5229175;28;20086;-78
2021/05/08 08:17:13;;;;;;;9.65;4.63;;;;;;;25.88;39.72;100886.16;5211047;28;20279;-79
2021/05/08 08:19:47;;;;;;;7.25;4.20;;;;;;;24.64;42.43;100879.84;5225376;28;20017;-78
2021/05/08 08:22:18;;;;;;;8.60;4.72;;;;;;;21.56;42.51;100900.25;5225942;28;20416;-78
2021/05/08 08:24:49;;;;;;;7.45;4.95;;;;;;;23.26;42.82;100891.00;5207672;28;20036;-78
2021/05/08 08:27:19;;;;;;;6.45;4.38;;;;;;;22.61;44.09;100892.81;5206461;28;20072;-78
2021/05/08 08:29:49;;;;;;;10.43;4.93;;;;;;;22.59;44.96;100889.44;5224793;28;20029;-78
2021/05/08 08:32:20;;;;;;;7.53;5.57;;;;;;;23.14;42.93;100892.88;5205231;28;20040;-79
2021/05/08 08:34:50;;;;;;;8.98;5.20;;;;;;;23.60;44.44;100885.41;5207073;28;20800;-78
2021/05/08 08:37:21;;;;;;;9.63;4.63;;;;;;;22.08;43.22;100895.34;5206699;28;20036;-78
2021/05/08 08:39:51;;;;;;;8.95;4.93;;;;;;;21.39;44.83;100900.69;5224006;28;20029;-78
2021/05/08 08:42:21;;;;;;;7.57;4.60;;;;;;;22.02;45.22;100899.31;5224442;28;20603;-78
2021/05/08 08:44:52;;;;;;;7.22;4.75;;;;;;;23.15;44.54;100896.38;5206401;28;20037;-78
2021/05/08 08:47:29;;;;;;;8.00;4.57;;;;;;;22.81;43.70;100892.91;5222084;28;20491;-78
2021/05/08 08:50:12;;;;;;;8.77;5.28;;;;;;;21.08;46.15;100898.59;5223520;28;20035;-78
2021/05/08 08:52:43;;;;;;;10.70;4.53;;;;;;;20.93;45.69;100900.53;5224068;28;20067;-78
2021/05/08 08:55:13;;;;;;;9.48;5.07;;;;;;;20.77;45.24;100891.13;5217282;28;20498;-78
2021/05/08 08:57:47;;;;;;;7.78;4.78;;;;;;;21.60;44.47;100891.91;5224362;28;20449;-78
2021/05/08 09:00:18;;;;;;;8.75;4.30;;;;;;;19.83;46.92;100898.75;5224267;28;20387;-78
2021/05/08 09:02:50;;;;;;;12.80;4.80;;;;;;;20.74;48.21;100892.19;5224220;28;20059;-78
2021/05/08 09:05:23;;;;;;;10.55;4.70;;;;;;;19.34;47.95;100897.69;5205928;28;20032;-78
2021/05/08 09:08:07;;;;;;;8.77;4.80;;;;;;;19.42;46.27;100891.88;5219864;28;20037;-78
2021/05/08 09:10:38;;;;;;;7.03;4.40;;;;;;;18.89;47.48;100884.75;5224493;28;20629;-78
2021/05/08 09:13:16;;;;;;;8.65;4.78;;;;;;;18.90;48.75;100888.28;5224402;28;20039;-77
2021/05/08 09:15:48;;;;;;;7.18;4.68;;;;;;;18.91;50.47;100885.50;5224601;28;20036;-78
2021/05/08 09:18:37;;;;;;;10.07;5.40;;;;;;;17.00;49.79;100882.31;5224097;28;20475;-78
2021/05/08 09:21:24;;;;;;;10.90;4.63;;;;;;;18.16;48.84;100868.28;5205379;28;20036;-78
2021/05/08 09:23:59;;;;;;;7.47;4.45;;;;;;;17.67;54.93;100877.50;5222827;28;20059;-77
2021/05/08 09:26:38;;;;;;;8.27;4.00;;;;;;;18.08;50.50;100867.06;5224146;28;20035;-78
2021/05/08 09:29:23;;;;;;;8.82;4.50;;;;;;;17.83;49.51;100865.06;5224556;28;20037;-78
2021/05/08 09:31:55;;;;;;;7.78;4.10;;;;;;;17.72;49.65;100866.66;5211066;28;20109;-78
2021/05/08 09:34:26;;;;;;;8.18;3.72;;;;;;;19.21;48.82;100856.16;5206571;28;20029;-78
2021/05/08 09:37:00;;;;;;;5.57;3.38;;;;;;;18.09;45.66;100853.75;5224069;28;20029;-77
2021/05/08 09:39:33;;;;;;;8.48;3.47;;;;;;;17.88;47.94;100859.50;5224168;28;20025;-77
2021/05/08 09:42:03;;;;;;;6.53;3.22;;;;;;;17.35;47.31;100856.56;5224050;28;20110;-78
2021/05/08 09:44:33;;;;;;;6.15;3.25;;;;;;;17.95;47.80;100847.59;5222279;28;20179;-78
2021/05/08 09:47:26;;;;;;;6.67;2.70;;;;;;;17.84;46.91;100837.66;5205382;28;20032;-78
2021/05/08 09:49:57;;;;;;;5.43;2.67;;;;;;;18.04;47.79;100841.75;5204952;28;20354;-78
2021/05/08 09:52:40;;;;;;;7.75;3.10;;;;;;;18.01;49.55;100837.47;5204677;28;20120;-78
2021/05/08 09:55:12;;;;;;;8.80;2.95;;;;;;;18.25;47.83;100835.09;5221677;28;20029;-78
2021/05/08 09:58:19;;;;;;;5.38;2.97;;;;;;;18.32;43.72;100836.47;5222303;28;20028;-77
2021/05/08 10:00:51;;;;;;;6.35;2.60;;;;;;;17.57;46.07;100827.91;5191311;28;20494;-77
2021/05/08 10:03:23;;;;;;;5.70;2.92;;;;;;;17.42;46.55;100828.81;5224542;28;20024;-78
2021/05/08 10:06:02;;;;;;;6.13;2.90;;;;;;;17.52;47.56;100817.59;5223251;28;20033;-77
2021/05/08 10:08:33;;;;;;;8.25;2.97;;;;;;;17.38;47.19;100824.66;5205385;28;20386;-77
2021/05/08 10:11:03;;;;;;;8.38;3.65;;;;;;;17.64;46.83;100823.97;5204809;28;20040;-78
2021/05/08 10:13:34;;;;;;;6.57;3.50;;;;;;;17.78;45.99;100818.66;5222863;28;20032;-78
2021/05/08 10:16:04;;;;;;;6.57;3.35;;;;;;;17.44;47.56;100809.31;5222633;28;20043;-78
2021/05/08 10:18:35;;;;;;;5.88;3.47;;;;;;;17.26;45.93;100806.84;5204392;28;20029;-77
2021/05/08 10:21:07;;;;;;;5.50;3.10;;;;;;;17.70;49.31;100807.72;5222929;28;20024;-78
2021/05/08 10:23:37;;;;;;;7.40;3.20;;;;;;;17.71;49.04;100804.13;5204458;28;20110;-78
2021/05/08 10:26:07;;;;;;;7.33;4.00;;;;;;;17.81;51.75;100803.47;5222438;28;20057;-77
2021/05/08 10:28:38;;;;;;;9.23;4.05;;;;;;;17.49;50.05;100806.38;5205014;28;20276;-78
2021/05/08 10:31:08;;;;;;;7.63;3.97;;;;;;;17.77;51.33;100801.09;5220938;28;20055;-78
2021/05/08 10:33:44;;;;;;;7.57;3.50;;;;;;;16.86;47.81;100794.28;5204838;28;20032;-78
2021/05/08 10:36:52;;;;;;;6.55;3.40;;;;;;;17.46;48.79;100791.56;5222650;28;20723;-78
2021/05/08 10:39:22;;;;;;;7.70;4.20;;;;;;;16.71;47.92;100789.88;5222582;28;20168;-78
2021/05/08 10:41:53;;;;;;;8.55;4.28;;;;;;;16.82;48.50;100792.78;5221005;28;20040;-78
2021/05/08 10:44:43;;;;;;;8.18;3.72;;;;;;;17.05;51.08;100792.28;5220878;28;20498;-78
2021/05/08 10:47:14;;;;;;;6.85;3.83;;;;;;;17.42;49.28;100795.34;5220465;28;20036;-77
2021/05/08 10:50:23;;;;;;;5.88;3.70;;;;;;;17.82;49.30;100778.72;5219997;28;20032;-77
2021/05/08 10:53:12;;;;;;;9.60;4.32;;;;;;;17.43;51.74;100782.94;5212528;28;20482;-76
2021/05/08 10:55:51;;;;;;;8.98;4.78;;;;;;;16.79;48.20;100771.84;5222529;28;20048;-76
2021/05/08 10:58:21;;;;;;;9.32;4.78;;;;;;;16.18;50.50;100773.53;5205345;28;20032;-77
2021/05/08 11:00:58;;;;;;;7.28;4.53;;;;;;;16.99;53.49;100772.34;5221054;28;20025;-76
2021/05/08 11:03:52;;;;;;;8.57;5.57;;;;;;;17.16;48.21;100766.09;5223804;28;20483;-76
2021/05/08 11:06:24;;;;;;;12.07;5.70;;;;;;;16.55;48.58;100767.09;5200817;28;20032;-76
2021/05/08 11:08:55;;;;;;;13.10;5.63;;;;;;;16.49;49.46;100762.16;5205374;28;20053;-75
2021/05/08 11:11:47;;;;;;;20.35;12.85;;;;;;;16.70;48.96;100755.69;5223283;28;20092;-76
2021/05/08 11:14:52;;;;;;;7.88;5.00;;;;;;;16.72;47.64;100749.34;5225922;28;20315;-77
2021/05/08 11:17:23;;;;;;;18.17;10.48;;;;;;;16.96;47.41;100747.94;5206277;28;20029;-77
2021/05/08 11:19:53;;;;;;;10.85;5.35;;;;;;;17.18;48.21;100745.72;5208967;28;20133;-76
2021/05/08 11:22:33;;;;;;;8.50;4.35;;;;;;;16.80;53.19;100741.84;5227634;28;20070;-78
2021/05/08 11:25:32;;;;;;;8.10;4.38;;;;;;;16.34;50.15;100737.47;5229087;28;20120;-77
2021/05/08 11:28:06;;;;;;;7.32;4.32;;;;;;;16.44;50.07;100736.06;5226530;28;20830;-77
2021/05/08 11:30:53;;;;;;;7.97;4.30;;;;;;;16.62;49.14;100732.34;5227111;28;20040;-77
2021/05/08 11:33:27;;;;;;;8.00;3.90;;;;;;;16.77;50.20;100726.19;5228357;28;20135;-78
2021/05/08 11:36:04;;;;;;;7.55;4.20;;;;;;;17.25;49.45;100721.47;5210221;28;20044;-78
2021/05/08 11:38:35;;;;;;;5.93;3.83;;;;;;;16.80;52.11;100718.94;5239020;28;20052;-77
2021/05/08 11:41:22;;;;;;;5.63;3.20;;;;;;;17.14;51.01;100712.50;5209620;28;20052;-77
2021/05/08 11:43:55;;;;;;;10.38;3.72;;;;;;;16.74;50.06;100715.78;5225954;28;20099;-77
2021/05/08 11:46:31;;;;;;;12.75;3.92;;;;;;;16.63;51.06;100717.34;5227964;28;20021;-77
2021/05/08 11:49:01;;;;;;;9.60;3.60;;;;;;;16.60;52.26;100707.84;5211636;28;20076;-77